sensor_id;sensor_type;location;lat;lon;timestamp;P1;durP1;ratioP1;P2;durP2;ratioP2
75261;SDS011;63859;51.064;4.580;2023-02-23T00:01:11;174.80;;;64.43;;
75261;SDS011;63859;51.064;4.580;2023-02-23T00:03:38;176.87;;;63.03;;
75261;SDS011;63859;51.064;4.580;2023-02-23T00:06:05;182.67;;;65.47;;
75261;SDS011;63859;51.064;4.580;2023-02-23T00:08:32;179.10;;;65.07;;
75261;SDS011;63859;51.064;4.580;2023-02-23T00:11:00;186.37;;;68.87;;
75261;SDS011;63859;51.064;4.580;2023-02-23T00:13:33;167.53;;;63.67;;
75261;SDS011;63859;51.064;4.580;2023-02-23T00:16:03;168.40;;;63.50;;
75261;SDS011;63859;51.064;4.580;2023-02-23T00:18:36;159.17;;;62.03;;
75261;SDS011;63859;51.064;4.580;2023-02-23T00:21:11;145.70;;;60.00;;
75261;SDS011;63859;51.064;4.580;2023-02-23T00:23:43;157.97;;;61.33;;
75261;SDS011;63859;51.064;4.580;2023-02-23T00:26:13;144.80;;;59.83;;
75261;SDS011;63859;51.064;4.580;2023-02-23T00:28:39;143.17;;;60.40;;
75261;SDS011;63859;51.064;4.580;2023-02-23T00:31:07;150.90;;;59.53;;
75261;SDS011;63859;51.064;4.580;2023-02-23T00:33:34;141.70;;;58.57;;
75261;SDS011;63859;51.064;4.580;2023-02-23T00:36:04;145.33;;;58.67;;
75261;SDS011;63859;51.064;4.580;2023-02-23T00:38:32;148.13;;;59.67;;
75261;SDS011;63859;51.064;4.580;2023-02-23T00:41:02;140.17;;;59.70;;
75261;SDS011;63859;51.064;4.580;2023-02-23T00:43:33;151.97;;;59.07;;
75261;SDS011;63859;51.064;4.580;2023-02-23T00:46:00;153.77;;;60.10;;
75261;SDS011;63859;51.064;4.580;2023-02-23T00:48:29;143.40;;;60.17;;
75261;SDS011;63859;51.064;4.580;2023-02-23T00:50:57;142.60;;;60.30;;
75261;SDS011;63859;51.064;4.580;2023-02-23T00:53:27;146.83;;;58.20;;
75261;SDS011;63859;51.064;4.580;2023-02-23T00:55:53;153.40;;;59.67;;
75261;SDS011;63859;51.064;4.580;2023-02-23T00:58:20;135.00;;;57.27;;
75261;SDS011;63859;51.064;4.580;2023-02-23T01:00:46;146.50;;;61.00;;
75261;SDS011;63859;51.064;4.580;2023-02-23T01:03:12;142.40;;;59.70;;
75261;SDS011;63859;51.064;4.580;2023-02-23T01:05:37;144.93;;;58.93;;
75261;SDS011;63859;51.064;4.580;2023-02-23T01:08:03;138.20;;;58.20;;
75261;SDS011;63859;51.064;4.580;2023-02-23T01:10:33;146.43;;;61.63;;
75261;SDS011;63859;51.064;4.580;2023-02-23T01:13:02;146.37;;;59.00;;
75261;SDS011;63859;51.064;4.580;2023-02-23T01:15:29;151.23;;;59.10;;
75261;SDS011;63859;51.064;4.580;2023-02-23T01:17:56;136.53;;;58.23;;
75261;SDS011;63859;51.064;4.580;2023-02-23T01:20:22;139.50;;;60.03;;
75261;SDS011;63859;51.064;4.580;2023-02-23T01:22:49;151.93;;;60.70;;
75261;SDS011;63859;51.064;4.580;2023-02-23T01:25:18;145.43;;;57.37;;
75261;SDS011;63859;51.064;4.580;2023-02-23T01:27:44;146.50;;;60.27;;
75261;SDS011;63859;51.064;4.580;2023-02-23T01:30:10;155.97;;;60.93;;
75261;SDS011;63859;51.064;4.580;2023-02-23T01:32:38;141.90;;;58.27;;
75261;SDS011;63859;51.064;4.580;2023-02-23T01:35:06;144.23;;;58.67;;
75261;SDS011;63859;51.064;4.580;2023-02-23T01:37:34;144.23;;;60.23;;
75261;SDS011;63859;51.064;4.580;2023-02-23T01:40:00;157.83;;;59.83;;
75261;SDS011;63859;51.064;4.580;2023-02-23T01:42:38;144.83;;;58.30;;
75261;SDS011;63859;51.064;4.580;2023-02-23T01:45:22;147.83;;;59.03;;
75261;SDS011;63859;51.064;4.580;2023-02-23T01:47:52;145.07;;;59.60;;
75261;SDS011;63859;51.064;4.580;2023-02-23T01:50:26;150.80;;;59.87;;
75261;SDS011;63859;51.064;4.580;2023-02-23T01:52:54;153.50;;;59.77;;
75261;SDS011;63859;51.064;4.580;2023-02-23T01:55:21;146.23;;;58.27;;
75261;SDS011;63859;51.064;4.580;2023-02-23T01:57:51;134.23;;;58.87;;
75261;SDS011;63859;51.064;4.580;2023-02-23T02:00:20;143.47;;;58.80;;
75261;SDS011;63859;51.064;4.580;2023-02-23T02:02:49;149.63;;;59.77;;
75261;SDS011;63859;51.064;4.580;2023-02-23T02:05:16;151.07;;;58.80;;
75261;SDS011;63859;51.064;4.580;2023-02-23T02:07:44;162.57;;;60.00;;
75261;SDS011;63859;51.064;4.580;2023-02-23T02:10:12;168.77;;;60.43;;
75261;SDS011;63859;51.064;4.580;2023-02-23T02:12:41;165.87;;;58.33;;
75261;SDS011;63859;51.064;4.580;2023-02-23T02:15:10;172.10;;;61.27;;
75261;SDS011;63859;51.064;4.580;2023-02-23T02:28:44;189.00;;;57.37;;
75261;SDS011;63859;51.064;4.580;2023-02-23T02:37:10;195.03;;;56.00;;
75261;SDS011;63859;51.064;4.580;2023-02-23T02:42:34;191.47;;;55.33;;
75261;SDS011;63859;51.064;4.580;2023-02-23T02:47:41;188.63;;;57.90;;
75261;SDS011;63859;51.064;4.580;2023-02-23T02:50:16;198.57;;;60.27;;
75261;SDS011;63859;51.064;4.580;2023-02-23T02:53:01;189.13;;;58.57;;
75261;SDS011;63859;51.064;4.580;2023-02-23T02:55:31;181.63;;;56.73;;
75261;SDS011;63859;51.064;4.580;2023-02-23T02:58:01;189.30;;;56.33;;
75261;SDS011;63859;51.064;4.580;2023-02-23T03:00:35;137.57;;;42.13;;
75261;SDS011;63859;51.064;4.580;2023-02-23T03:06:16;118.93;;;34.07;;
75261;SDS011;63859;51.064;4.580;2023-02-23T03:09:10;114.13;;;33.43;;
75261;SDS011;63859;51.064;4.580;2023-02-23T03:18:10;113.23;;;33.57;;
75261;SDS011;63859;51.064;4.580;2023-02-23T03:21:21;104.60;;;31.57;;
75261;SDS011;63859;51.064;4.580;2023-02-23T03:24:11;118.37;;;31.90;;
75261;SDS011;63859;51.064;4.580;2023-02-23T03:27:39;115.27;;;32.53;;
75261;SDS011;63859;51.064;4.580;2023-02-23T03:30:42;117.97;;;33.50;;
75261;SDS011;63859;51.064;4.580;2023-02-23T03:37:02;115.47;;;35.50;;
75261;SDS011;63859;51.064;4.580;2023-02-23T03:43:09;132.53;;;37.93;;
75261;SDS011;63859;51.064;4.580;2023-02-23T03:45:58;131.17;;;39.20;;
75261;SDS011;63859;51.064;4.580;2023-02-23T03:48:45;137.30;;;40.20;;
75261;SDS011;63859;51.064;4.580;2023-02-23T03:51:33;132.37;;;39.80;;
75261;SDS011;63859;51.064;4.580;2023-02-23T03:54:26;129.40;;;39.07;;
75261;SDS011;63859;51.064;4.580;2023-02-23T03:57:19;139.13;;;41.10;;
75261;SDS011;63859;51.064;4.580;2023-02-23T04:00:08;133.23;;;38.43;;
75261;SDS011;63859;51.064;4.580;2023-02-23T04:02:59;126.60;;;38.10;;
75261;SDS011;63859;51.064;4.580;2023-02-23T04:05:46;133.77;;;38.43;;
75261;SDS011;63859;51.064;4.580;2023-02-23T04:08:34;125.77;;;39.97;;
75261;SDS011;63859;51.064;4.580;2023-02-23T04:11:30;128.37;;;40.10;;
75261;SDS011;63859;51.064;4.580;2023-02-23T04:14:36;134.10;;;39.47;;
75261;SDS011;63859;51.064;4.580;2023-02-23T04:17:07;136.93;;;39.83;;
75261;SDS011;63859;51.064;4.580;2023-02-23T04:19:34;131.83;;;40.07;;
75261;SDS011;63859;51.064;4.580;2023-02-23T04:22:00;126.30;;;40.50;;
75261;SDS011;63859;51.064;4.580;2023-02-23T04:24:25;131.23;;;40.43;;
75261;SDS011;63859;51.064;4.580;2023-02-23T04:26:51;137.33;;;40.57;;
75261;SDS011;63859;51.064;4.580;2023-02-23T04:29:17;129.67;;;40.37;;
75261;SDS011;63859;51.064;4.580;2023-02-23T04:31:42;129.57;;;39.43;;
75261;SDS011;63859;51.064;4.580;2023-02-23T04:34:08;143.53;;;43.37;;
75261;SDS011;63859;51.064;4.580;2023-02-23T04:36:34;143.60;;;43.77;;
75261;SDS011;63859;51.064;4.580;2023-02-23T04:39:00;140.23;;;42.10;;
75261;SDS011;63859;51.064;4.580;2023-02-23T04:41:26;148.70;;;42.67;;
75261;SDS011;63859;51.064;4.580;2023-02-23T04:43:51;149.87;;;45.53;;
75261;SDS011;63859;51.064;4.580;2023-02-23T04:46:17;141.77;;;43.83;;
75261;SDS011;63859;51.064;4.580;2023-02-23T04:48:42;145.73;;;44.87;;
75261;SDS011;63859;51.064;4.580;2023-02-23T04:51:08;151.37;;;44.87;;
75261;SDS011;63859;51.064;4.580;2023-02-23T04:53:34;148.37;;;45.53;;
75261;SDS011;63859;51.064;4.580;2023-02-23T04:55:59;146.83;;;45.30;;
75261;SDS011;63859;51.064;4.580;2023-02-23T04:58:25;145.37;;;45.37;;
75261;SDS011;63859;51.064;4.580;2023-02-23T05:00:51;140.47;;;43.10;;
75261;SDS011;63859;51.064;4.580;2023-02-23T05:03:16;154.43;;;44.83;;
75261;SDS011;63859;51.064;4.580;2023-02-23T05:05:42;141.23;;;44.27;;
75261;SDS011;63859;51.064;4.580;2023-02-23T05:08:10;150.70;;;46.13;;
75261;SDS011;63859;51.064;4.580;2023-02-23T05:10:35;143.07;;;43.83;;
75261;SDS011;63859;51.064;4.580;2023-02-23T05:13:01;140.33;;;43.07;;
75261;SDS011;63859;51.064;4.580;2023-02-23T05:15:27;155.30;;;46.07;;
75261;SDS011;63859;51.064;4.580;2023-02-23T05:17:53;141.53;;;43.50;;
75261;SDS011;63859;51.064;4.580;2023-02-23T05:20:19;152.20;;;44.97;;
75261;SDS011;63859;51.064;4.580;2023-02-23T05:22:45;138.97;;;43.80;;
75261;SDS011;63859;51.064;4.580;2023-02-23T05:25:11;149.60;;;45.97;;
75261;SDS011;63859;51.064;4.580;2023-02-23T05:27:37;142.70;;;44.03;;
75261;SDS011;63859;51.064;4.580;2023-02-23T05:30:04;138.30;;;43.10;;
75261;SDS011;63859;51.064;4.580;2023-02-23T05:32:31;139.30;;;43.70;;
75261;SDS011;63859;51.064;4.580;2023-02-23T05:34:58;152.97;;;45.63;;
75261;SDS011;63859;51.064;4.580;2023-02-23T05:37:24;154.13;;;43.87;;
75261;SDS011;63859;51.064;4.580;2023-02-23T05:39:50;156.33;;;45.30;;
75261;SDS011;63859;51.064;4.580;2023-02-23T05:42:15;157.30;;;44.93;;
75261;SDS011;63859;51.064;4.580;2023-02-23T05:44:41;156.03;;;44.50;;
75261;SDS011;63859;51.064;4.580;2023-02-23T05:47:07;139.67;;;42.80;;
75261;SDS011;63859;51.064;4.580;2023-02-23T05:49:32;144.23;;;42.07;;
75261;SDS011;63859;51.064;4.580;2023-02-23T05:51:58;145.23;;;44.10;;
75261;SDS011;63859;51.064;4.580;2023-02-23T05:54:23;141.30;;;44.03;;
75261;SDS011;63859;51.064;4.580;2023-02-23T05:56:49;149.03;;;43.10;;
75261;SDS011;63859;51.064;4.580;2023-02-23T05:59:15;145.13;;;43.13;;
75261;SDS011;63859;51.064;4.580;2023-02-23T06:01:41;151.60;;;43.60;;
75261;SDS011;63859;51.064;4.580;2023-02-23T06:04:07;137.67;;;42.23;;
75261;SDS011;63859;51.064;4.580;2023-02-23T06:06:33;145.00;;;44.53;;
75261;SDS011;63859;51.064;4.580;2023-02-23T06:08:59;145.07;;;42.47;;
75261;SDS011;63859;51.064;4.580;2023-02-23T06:11:27;155.50;;;45.47;;
75261;SDS011;63859;51.064;4.580;2023-02-23T06:13:53;161.87;;;46.10;;
75261;SDS011;63859;51.064;4.580;2023-02-23T06:16:19;151.07;;;44.80;;
75261;SDS011;63859;51.064;4.580;2023-02-23T06:18:45;161.00;;;45.23;;
75261;SDS011;63859;51.064;4.580;2023-02-23T06:21:10;158.03;;;45.80;;
75261;SDS011;63859;51.064;4.580;2023-02-23T06:23:36;148.87;;;44.43;;
75261;SDS011;63859;51.064;4.580;2023-02-23T06:26:02;153.97;;;45.03;;
75261;SDS011;63859;51.064;4.580;2023-02-23T06:28:28;148.53;;;43.37;;
75261;SDS011;63859;51.064;4.580;2023-02-23T06:30:54;158.83;;;45.37;;
75261;SDS011;63859;51.064;4.580;2023-02-23T06:33:20;165.20;;;46.03;;
75261;SDS011;63859;51.064;4.580;2023-02-23T06:35:46;155.27;;;43.67;;
75261;SDS011;63859;51.064;4.580;2023-02-23T06:38:12;151.17;;;44.63;;
75261;SDS011;63859;51.064;4.580;2023-02-23T06:40:38;166.33;;;47.33;;
75261;SDS011;63859;51.064;4.580;2023-02-23T06:43:04;157.47;;;45.47;;
75261;SDS011;63859;51.064;4.580;2023-02-23T06:45:30;166.87;;;46.27;;
75261;SDS011;63859;51.064;4.580;2023-02-23T06:47:56;165.13;;;45.60;;
75261;SDS011;63859;51.064;4.580;2023-02-23T06:50:22;173.93;;;46.40;;
75261;SDS011;63859;51.064;4.580;2023-02-23T06:52:48;162.53;;;47.10;;
75261;SDS011;63859;51.064;4.580;2023-02-23T06:55:14;171.40;;;48.43;;
75261;SDS011;63859;51.064;4.580;2023-02-23T06:57:40;182.87;;;47.70;;
75261;SDS011;63859;51.064;4.580;2023-02-23T07:00:08;166.30;;;48.10;;
75261;SDS011;63859;51.064;4.580;2023-02-23T07:02:35;155.60;;;44.77;;
75261;SDS011;63859;51.064;4.580;2023-02-23T07:05:02;164.93;;;45.57;;
75261;SDS011;63859;51.064;4.580;2023-02-23T07:07:28;154.97;;;46.10;;
75261;SDS011;63859;51.064;4.580;2023-02-23T07:09:53;165.47;;;46.70;;
75261;SDS011;63859;51.064;4.580;2023-02-23T07:12:19;156.20;;;45.80;;
75261;SDS011;63859;51.064;4.580;2023-02-23T07:14:45;170.10;;;45.37;;
75261;SDS011;63859;51.064;4.580;2023-02-23T07:17:10;147.20;;;44.77;;
75261;SDS011;63859;51.064;4.580;2023-02-23T07:19:36;156.70;;;46.07;;
75261;SDS011;63859;51.064;4.580;2023-02-23T07:22:02;160.07;;;44.27;;
75261;SDS011;63859;51.064;4.580;2023-02-23T07:24:28;162.70;;;44.30;;
75261;SDS011;63859;51.064;4.580;2023-02-23T07:26:54;150.07;;;44.00;;
75261;SDS011;63859;51.064;4.580;2023-02-23T07:29:20;161.20;;;46.40;;
75261;SDS011;63859;51.064;4.580;2023-02-23T07:31:47;151.30;;;44.77;;
75261;SDS011;63859;51.064;4.580;2023-02-23T07:34:14;163.97;;;47.73;;
75261;SDS011;63859;51.064;4.580;2023-02-23T07:36:40;166.93;;;47.67;;
75261;SDS011;63859;51.064;4.580;2023-02-23T07:39:05;159.07;;;48.33;;
75261;SDS011;63859;51.064;4.580;2023-02-23T07:41:31;155.43;;;45.93;;
75261;SDS011;63859;51.064;4.580;2023-02-23T07:43:57;161.07;;;46.60;;
75261;SDS011;63859;51.064;4.580;2023-02-23T07:46:23;165.70;;;45.27;;
75261;SDS011;63859;51.064;4.580;2023-02-23T07:48:49;171.77;;;47.40;;
75261;SDS011;63859;51.064;4.580;2023-02-23T07:51:15;154.37;;;44.83;;
75261;SDS011;63859;51.064;4.580;2023-02-23T07:53:41;152.93;;;46.40;;
75261;SDS011;63859;51.064;4.580;2023-02-23T07:56:08;151.07;;;45.17;;
75261;SDS011;63859;51.064;4.580;2023-02-23T07:58:41;149.60;;;44.83;;
75261;SDS011;63859;51.064;4.580;2023-02-23T08:01:09;164.13;;;47.03;;
75261;SDS011;63859;51.064;4.580;2023-02-23T08:03:36;153.97;;;45.13;;
75261;SDS011;63859;51.064;4.580;2023-02-23T08:06:03;153.50;;;45.57;;
75261;SDS011;63859;51.064;4.580;2023-02-23T08:08:29;154.20;;;47.37;;
75261;SDS011;63859;51.064;4.580;2023-02-23T08:10:58;160.63;;;47.47;;
75261;SDS011;63859;51.064;4.580;2023-02-23T08:13:25;153.27;;;44.93;;
75261;SDS011;63859;51.064;4.580;2023-02-23T08:15:50;166.67;;;46.90;;
75261;SDS011;63859;51.064;4.580;2023-02-23T08:18:16;163.43;;;49.00;;
75261;SDS011;63859;51.064;4.580;2023-02-23T08:20:41;161.27;;;47.73;;
75261;SDS011;63859;51.064;4.580;2023-02-23T08:23:07;159.37;;;49.60;;
75261;SDS011;63859;51.064;4.580;2023-02-23T08:25:32;167.13;;;50.73;;
75261;SDS011;63859;51.064;4.580;2023-02-23T08:27:59;160.70;;;47.67;;
75261;SDS011;63859;51.064;4.580;2023-02-23T08:30:28;155.30;;;47.30;;
75261;SDS011;63859;51.064;4.580;2023-02-23T08:32:55;165.83;;;47.60;;
75261;SDS011;63859;51.064;4.580;2023-02-23T08:35:21;160.43;;;48.43;;
75261;SDS011;63859;51.064;4.580;2023-02-23T08:37:47;158.93;;;49.00;;
75261;SDS011;63859;51.064;4.580;2023-02-23T08:40:12;156.50;;;47.87;;
75261;SDS011;63859;51.064;4.580;2023-02-23T08:42:42;136.33;;;45.87;;
75261;SDS011;63859;51.064;4.580;2023-02-23T08:45:09;147.77;;;47.47;;
75261;SDS011;63859;51.064;4.580;2023-02-23T08:47:35;142.37;;;46.10;;
75261;SDS011;63859;51.064;4.580;2023-02-23T08:50:01;145.30;;;47.47;;
75261;SDS011;63859;51.064;4.580;2023-02-23T08:52:29;162.87;;;49.43;;
75261;SDS011;63859;51.064;4.580;2023-02-23T08:54:54;137.83;;;47.33;;
75261;SDS011;63859;51.064;4.580;2023-02-23T08:57:20;156.77;;;48.37;;
75261;SDS011;63859;51.064;4.580;2023-02-23T08:59:46;143.90;;;47.90;;
75261;SDS011;63859;51.064;4.580;2023-02-23T09:02:12;138.77;;;47.00;;
75261;SDS011;63859;51.064;4.580;2023-02-23T09:04:38;156.73;;;48.67;;
75261;SDS011;63859;51.064;4.580;2023-02-23T09:07:06;149.03;;;49.43;;
75261;SDS011;63859;51.064;4.580;2023-02-23T09:09:33;151.23;;;49.53;;
75261;SDS011;63859;51.064;4.580;2023-02-23T09:11:58;144.93;;;47.23;;
75261;SDS011;63859;51.064;4.580;2023-02-23T09:14:24;149.97;;;49.90;;
75261;SDS011;63859;51.064;4.580;2023-02-23T09:16:50;142.53;;;47.63;;
75261;SDS011;63859;51.064;4.580;2023-02-23T09:19:16;137.57;;;45.30;;
75261;SDS011;63859;51.064;4.580;2023-02-23T09:21:42;120.47;;;44.13;;
75261;SDS011;63859;51.064;4.580;2023-02-23T09:24:08;127.03;;;44.57;;
75261;SDS011;63859;51.064;4.580;2023-02-23T09:26:34;125.67;;;44.53;;
75261;SDS011;63859;51.064;4.580;2023-02-23T09:29:04;119.27;;;44.60;;
75261;SDS011;63859;51.064;4.580;2023-02-23T09:31:30;128.57;;;46.03;;
75261;SDS011;63859;51.064;4.580;2023-02-23T09:33:57;123.67;;;44.63;;
75261;SDS011;63859;51.064;4.580;2023-02-23T09:36:25;122.50;;;45.00;;
75261;SDS011;63859;51.064;4.580;2023-02-23T09:38:52;129.53;;;44.50;;
75261;SDS011;63859;51.064;4.580;2023-02-23T09:50:22;105.93;;;40.13;;
75261;SDS011;63859;51.064;4.580;2023-02-23T09:52:55;108.80;;;41.27;;
75261;SDS011;63859;51.064;4.580;2023-02-23T09:55:24;99.43;;;38.60;;
75261;SDS011;63859;51.064;4.580;2023-02-23T09:57:51;100.27;;;39.57;;
75261;SDS011;63859;51.064;4.580;2023-02-23T10:00:19;97.63;;;38.77;;
75261;SDS011;63859;51.064;4.580;2023-02-23T10:05:40;92.73;;;37.23;;
75261;SDS011;63859;51.064;4.580;2023-02-23T10:08:31;89.20;;;36.47;;
75261;SDS011;63859;51.064;4.580;2023-02-23T10:11:13;88.23;;;37.23;;
75261;SDS011;63859;51.064;4.580;2023-02-23T10:16:42;139.80;;;61.40;;
75261;SDS011;63859;51.064;4.580;2023-02-23T10:22:05;145.47;;;69.93;;
75261;SDS011;63859;51.064;4.580;2023-02-23T10:24:36;109.03;;;49.90;;
75261;SDS011;63859;51.064;4.580;2023-02-23T10:27:13;153.87;;;72.27;;
75261;SDS011;63859;51.064;4.580;2023-02-23T10:29:51;136.23;;;60.53;;
75261;SDS011;63859;51.064;4.580;2023-02-23T10:35:16;136.23;;;53.07;;
75261;SDS011;63859;51.064;4.580;2023-02-23T10:37:44;124.87;;;50.30;;
75261;SDS011;63859;51.064;4.580;2023-02-23T10:40:15;104.83;;;46.90;;
75261;SDS011;63859;51.064;4.580;2023-02-23T10:42:46;95.20;;;42.47;;
75261;SDS011;63859;51.064;4.580;2023-02-23T10:45:12;89.83;;;39.07;;
75261;SDS011;63859;51.064;4.580;2023-02-23T10:47:47;89.10;;;37.07;;
75261;SDS011;63859;51.064;4.580;2023-02-23T10:50:21;100.27;;;38.67;;
75261;SDS011;63859;51.064;4.580;2023-02-23T10:52:51;87.80;;;37.43;;
75261;SDS011;63859;51.064;4.580;2023-02-23T10:55:29;105.17;;;40.17;;
75261;SDS011;63859;51.064;4.580;2023-02-23T10:58:16;91.50;;;37.50;;
75261;SDS011;63859;51.064;4.580;2023-02-23T11:00:50;97.57;;;37.63;;
75261;SDS011;63859;51.064;4.580;2023-02-23T11:03:26;96.70;;;37.10;;
75261;SDS011;63859;51.064;4.580;2023-02-23T11:05:53;101.80;;;37.03;;
75261;SDS011;63859;51.064;4.580;2023-02-23T11:08:24;95.43;;;40.63;;
75261;SDS011;63859;51.064;4.580;2023-02-23T11:13:41;96.60;;;38.53;;
75261;SDS011;63859;51.064;4.580;2023-02-23T11:16:12;94.90;;;37.27;;
75261;SDS011;63859;51.064;4.580;2023-02-23T11:18:41;81.90;;;33.73;;
75261;SDS011;63859;51.064;4.580;2023-02-23T11:21:28;86.13;;;35.50;;
75261;SDS011;63859;51.064;4.580;2023-02-23T11:23:59;80.60;;;33.67;;
75261;SDS011;63859;51.064;4.580;2023-02-23T11:26:37;75.37;;;33.50;;
75261;SDS011;63859;51.064;4.580;2023-02-23T11:29:14;71.47;;;32.33;;
75261;SDS011;63859;51.064;4.580;2023-02-23T11:32:02;71.23;;;31.83;;
75261;SDS011;63859;51.064;4.580;2023-02-23T11:34:39;78.13;;;33.63;;
75261;SDS011;63859;51.064;4.580;2023-02-23T11:37:17;70.70;;;32.27;;
75261;SDS011;63859;51.064;4.580;2023-02-23T11:39:49;67.03;;;31.57;;
75261;SDS011;63859;51.064;4.580;2023-02-23T11:42:18;67.40;;;31.50;;
75261;SDS011;63859;51.064;4.580;2023-02-23T11:45:28;64.97;;;31.27;;
75261;SDS011;63859;51.064;4.580;2023-02-23T11:47:46;68.77;;;32.20;;
75261;SDS011;63859;51.064;4.580;2023-02-23T11:50:24;69.40;;;32.60;;
75261;SDS011;63859;51.064;4.580;2023-02-23T11:53:38;68.90;;;32.57;;
75261;SDS011;63859;51.064;4.580;2023-02-23T11:55:53;70.77;;;30.50;;
75261;SDS011;63859;51.064;4.580;2023-02-23T11:58:22;65.80;;;30.63;;
75261;SDS011;63859;51.064;4.580;2023-02-23T12:01:07;64.97;;;29.70;;
75261;SDS011;63859;51.064;4.580;2023-02-23T12:03:53;66.37;;;30.37;;
75261;SDS011;63859;51.064;4.580;2023-02-23T12:06:24;68.70;;;30.77;;
75261;SDS011;63859;51.064;4.580;2023-02-23T12:09:14;68.03;;;31.90;;
75261;SDS011;63859;51.064;4.580;2023-02-23T12:15:03;75.17;;;32.83;;
75261;SDS011;63859;51.064;4.580;2023-02-23T12:17:43;67.13;;;32.27;;
75261;SDS011;63859;51.064;4.580;2023-02-23T12:20:17;62.67;;;30.30;;
75261;SDS011;63859;51.064;4.580;2023-02-23T12:22:54;59.70;;;29.83;;
75261;SDS011;63859;51.064;4.580;2023-02-23T12:25:24;71.40;;;31.17;;
75261;SDS011;63859;51.064;4.580;2023-02-23T12:27:54;62.07;;;31.53;;
75261;SDS011;63859;51.064;4.580;2023-02-23T12:35:32;63.33;;;32.03;;
75261;SDS011;63859;51.064;4.580;2023-02-23T12:41:10;66.37;;;30.33;;
75261;SDS011;63859;51.064;4.580;2023-02-23T12:43:46;66.10;;;29.97;;
75261;SDS011;63859;51.064;4.580;2023-02-23T12:46:30;67.40;;;31.43;;
75261;SDS011;63859;51.064;4.580;2023-02-23T12:51:50;65.83;;;31.03;;
75261;SDS011;63859;51.064;4.580;2023-02-23T12:54:32;100.33;;;33.87;;
75261;SDS011;63859;51.064;4.580;2023-02-23T12:59:38;71.03;;;33.40;;
75261;SDS011;63859;51.064;4.580;2023-02-23T13:02:28;69.53;;;33.57;;
75261;SDS011;63859;51.064;4.580;2023-02-23T13:05:37;78.60;;;33.43;;
75261;SDS011;63859;51.064;4.580;2023-02-23T13:08:06;78.37;;;33.60;;
75261;SDS011;63859;51.064;4.580;2023-02-23T13:10:54;70.50;;;32.93;;
75261;SDS011;63859;51.064;4.580;2023-02-23T13:24:25;80.50;;;34.40;;
75261;SDS011;63859;51.064;4.580;2023-02-23T13:32:04;70.70;;;33.30;;
75261;SDS011;63859;51.064;4.580;2023-02-23T13:34:44;74.70;;;33.30;;
75261;SDS011;63859;51.064;4.580;2023-02-23T13:37:18;71.67;;;33.60;;
75261;SDS011;63859;51.064;4.580;2023-02-23T13:48:00;73.10;;;33.37;;
75261;SDS011;63859;51.064;4.580;2023-02-23T13:50:49;65.87;;;31.93;;
75261;SDS011;63859;51.064;4.580;2023-02-23T13:56:17;61.90;;;29.83;;
75261;SDS011;63859;51.064;4.580;2023-02-23T13:58:50;62.07;;;30.83;;
75261;SDS011;63859;51.064;4.580;2023-02-23T14:01:23;62.40;;;28.70;;
75261;SDS011;63859;51.064;4.580;2023-02-23T14:04:19;59.97;;;27.97;;
75261;SDS011;63859;51.064;4.580;2023-02-23T14:06:50;56.00;;;26.60;;
75261;SDS011;63859;51.064;4.580;2023-02-23T14:18:32;57.47;;;25.27;;
75261;SDS011;63859;51.064;4.580;2023-02-23T14:26:43;52.40;;;23.37;;
75261;SDS011;63859;51.064;4.580;2023-02-23T14:31:54;64.97;;;20.73;;
75261;SDS011;63859;51.064;4.580;2023-02-23T14:34:21;42.03;;;19.73;;
75261;SDS011;63859;51.064;4.580;2023-02-23T14:36:47;41.47;;;19.20;;
75261;SDS011;63859;51.064;4.580;2023-02-23T14:39:24;47.17;;;19.80;;
75261;SDS011;63859;51.064;4.580;2023-02-23T14:41:55;45.97;;;18.80;;
75261;SDS011;63859;51.064;4.580;2023-02-23T14:44:29;43.23;;;19.37;;
75261;SDS011;63859;51.064;4.580;2023-02-23T14:47:03;39.03;;;19.03;;
75261;SDS011;63859;51.064;4.580;2023-02-23T14:49:36;34.83;;;19.00;;
75261;SDS011;63859;51.064;4.580;2023-02-23T14:52:07;36.30;;;18.40;;
75261;SDS011;63859;51.064;4.580;2023-02-23T14:54:38;36.13;;;18.23;;
75261;SDS011;63859;51.064;4.580;2023-02-23T14:57:24;32.23;;;17.70;;
75261;SDS011;63859;51.064;4.580;2023-02-23T14:59:52;32.23;;;18.13;;
75261;SDS011;63859;51.064;4.580;2023-02-23T15:02:22;36.10;;;18.73;;
75261;SDS011;63859;51.064;4.580;2023-02-23T15:04:50;33.03;;;17.80;;
75261;SDS011;63859;51.064;4.580;2023-02-23T15:07:17;35.03;;;19.37;;
75261;SDS011;63859;51.064;4.580;2023-02-23T15:09:48;31.17;;;17.83;;
75261;SDS011;63859;51.064;4.580;2023-02-23T15:14:59;38.57;;;18.23;;
75261;SDS011;63859;51.064;4.580;2023-02-23T15:17:27;37.23;;;18.23;;
75261;SDS011;63859;51.064;4.580;2023-02-23T15:20:06;41.10;;;17.80;;
75261;SDS011;63859;51.064;4.580;2023-02-23T15:22:36;38.10;;;17.13;;
75261;SDS011;63859;51.064;4.580;2023-02-23T15:25:10;24.67;;;15.77;;
75261;SDS011;63859;51.064;4.580;2023-02-23T15:27:48;22.00;;;14.60;;
75261;SDS011;63859;51.064;4.580;2023-02-23T15:30:26;21.23;;;14.23;;
75261;SDS011;63859;51.064;4.580;2023-02-23T15:33:04;15.60;;;11.67;;
75261;SDS011;63859;51.064;4.580;2023-02-23T15:35:38;18.23;;;12.77;;
75261;SDS011;63859;51.064;4.580;2023-02-23T15:38:10;21.27;;;13.80;;
75261;SDS011;63859;51.064;4.580;2023-02-23T15:40:44;21.50;;;13.97;;
75261;SDS011;63859;51.064;4.580;2023-02-23T15:43:10;18.97;;;13.20;;
75261;SDS011;63859;51.064;4.580;2023-02-23T15:45:37;19.83;;;14.13;;
75261;SDS011;63859;51.064;4.580;2023-02-23T15:48:14;19.13;;;13.67;;
75261;SDS011;63859;51.064;4.580;2023-02-23T15:50:45;23.97;;;14.40;;
75261;SDS011;63859;51.064;4.580;2023-02-23T15:53:23;22.43;;;14.90;;
75261;SDS011;63859;51.064;4.580;2023-02-23T15:55:53;23.70;;;14.57;;
75261;SDS011;63859;51.064;4.580;2023-02-23T15:58:25;21.63;;;12.87;;
75261;SDS011;63859;51.064;4.580;2023-02-23T16:00:58;18.53;;;13.13;;
75261;SDS011;63859;51.064;4.580;2023-02-23T16:03:31;22.87;;;12.77;;
75261;SDS011;63859;51.064;4.580;2023-02-23T16:08:27;18.20;;;12.37;;
75261;SDS011;63859;51.064;4.580;2023-02-23T16:11:06;18.87;;;12.37;;
75261;SDS011;63859;51.064;4.580;2023-02-23T16:13:43;18.20;;;10.73;;
75261;SDS011;63859;51.064;4.580;2023-02-23T16:16:10;14.63;;;10.10;;
75261;SDS011;63859;51.064;4.580;2023-02-23T16:18:43;33.27;;;10.87;;
75261;SDS011;63859;51.064;4.580;2023-02-23T16:21:15;22.03;;;10.87;;
75261;SDS011;63859;51.064;4.580;2023-02-23T16:23:46;18.17;;;11.20;;
75261;SDS011;63859;51.064;4.580;2023-02-23T16:26:15;14.57;;;10.43;;
75261;SDS011;63859;51.064;4.580;2023-02-23T16:29:02;16.97;;;10.90;;
75261;SDS011;63859;51.064;4.580;2023-02-23T16:31:43;17.57;;;10.43;;
75261;SDS011;63859;51.064;4.580;2023-02-23T16:37:00;12.63;;;9.67;;
75261;SDS011;63859;51.064;4.580;2023-02-23T16:39:39;16.63;;;9.47;;
75261;SDS011;63859;51.064;4.580;2023-02-23T16:42:05;14.97;;;9.97;;
75261;SDS011;63859;51.064;4.580;2023-02-23T16:44:35;13.50;;;9.33;;
75261;SDS011;63859;51.064;4.580;2023-02-23T16:49:29;13.50;;;9.07;;
75261;SDS011;63859;51.064;4.580;2023-02-23T16:51:55;16.10;;;9.73;;